Airfield :
LOGIN :

Register | Disclaimer

   EN    FR    IT 

 










Legend :    VFR   Marginal VFR   IFR   Intensive IFR   Very Intensive IFR
Visi :
Ceiling :
>= 8 km
>= 3000ft
5 to 8 km
1000 to 3000 ft
1500m to 5 km
500 to 1000 ft
800 to 1500m
200 to 500 ft
< 800m
< 200 ft
Symbols :   Thunderstorms  Fog  Heavy snow  Heavy precipitations  Wind > 20 kt
SIGMETs :     Misc.  Thunderstorms  Icing  Turbulence  Mountain Waves  Volcanic Ashes







- Airport Elevation : 1568 ft


ETSB - Büchel AB

CURRENT METAR :
  • 250649Z 26006KT 8000 -SHGSSN SCT015TCU BKN019 02/M00 Q1020 WHT BLU TEMPO GRN

EXPIRED METARs :
  • 250620Z 26007KT 9999 BKN018 SCT050 01/M01 Q1020 WHT BLU TEMPO GRN
  • 250520Z 27006KT 9999 SCT020 BKN049 01/M02 Q1020 BLU BLU TEMPO GRN
  • 250420Z 26007KT 9999 BKN047 M00/M03 Q1020 BLU

TAF TAF ETSB
Valid from the 25 at 06:00 until the 25 at 15:00 UTC


250529Z 2506/2515 28010KT 9999 NSW BKN050
TEMPO 2506/2510 30010G20KT 5000 -RA BKN010 BKN040
TEMPO 2510/2515 30015G25KT 3000 SHRASN BKN006 BKN015CB
PROB30 2512/2515 31020G30KT 1000 TSSN BKN001 BKN010CB BY ETGL
No reported NOTAMs for that airfield.



MET'MAP, your aeronautical weather chart ! - Copyright ORBIFLY December 2007 - Disclaimer

ORBIFLY MET'MAP TEAM :

Programming & Development : Alexandra Zaïnal
Concept & Development : Baudouin d'Aumeries
Co-Development & Prog : Marc-Olivier Méhu
Technical & hardware support : Manuel Goepfert

Contact : metmap@orbifly.com




SOURCES & CREDITS :

   NOAA